createdAt,value
2018-08-30T00:00:00.473Z,7.70
2018-08-30T00:02:29.307Z,7.50
2018-08-30T00:04:58.180Z,7.30
2018-08-30T00:07:27.017Z,8.03
2018-08-30T00:09:55.865Z,7.17
2018-08-30T00:12:24.738Z,7.87
2018-08-30T00:14:53.579Z,8.00
2018-08-30T00:17:22.392Z,8.17
2018-08-30T00:19:51.254Z,8.17
2018-08-30T00:22:20.084Z,8.17
2018-08-30T00:24:48.896Z,7.77
2018-08-30T00:27:17.755Z,9.17
2018-08-30T00:29:46.551Z,8.67
2018-08-30T00:32:15.364Z,8.73
2018-08-30T00:34:44.237Z,8.23
2018-08-30T00:37:13.160Z,8.40
2018-08-30T00:39:41.997Z,8.20
2018-08-30T00:42:10.844Z,8.20
2018-08-30T00:44:39.689Z,7.97
2018-08-30T00:47:09.439Z,8.03
2018-08-30T00:49:38.280Z,8.10
2018-08-30T00:52:07.088Z,8.30
2018-08-30T00:54:36.113Z,8.60
2018-08-30T00:57:05.108Z,7.60
2018-08-30T00:59:33.927Z,8.00
2018-08-30T01:02:02.834Z,7.60
2018-08-30T01:04:31.779Z,7.80
2018-08-30T01:07:00.591Z,8.80
2018-08-30T01:09:29.402Z,8.40
2018-08-30T01:11:58.239Z,8.30
2018-08-30T01:14:27.082Z,8.10
2018-08-30T01:16:55.920Z,7.87
2018-08-30T01:19:24.832Z,8.23
2018-08-30T01:21:53.652Z,8.50
2018-08-30T01:24:22.450Z,8.47
2018-08-30T01:26:51.345Z,8.00
2018-08-30T01:29:20.163Z,7.97
2018-08-30T01:31:49.020Z,8.37
2018-08-30T01:34:17.881Z,8.10
2018-08-30T01:36:46.697Z,7.93
2018-08-30T01:39:15.536Z,7.43
2018-08-30T01:41:44.652Z,7.60
2018-08-30T01:44:14.470Z,7.50
2018-08-30T01:46:43.377Z,8.27
2018-08-30T01:49:12.237Z,7.93
2018-08-30T01:51:41.055Z,7.67
2018-08-30T01:54:09.889Z,7.87
2018-08-30T01:56:38.732Z,8.30
2018-08-30T01:59:07.541Z,7.97
2018-08-30T02:01:36.349Z,7.53
2018-08-30T02:04:05.303Z,8.07
2018-08-30T02:06:34.133Z,7.97
2018-08-30T02:09:03.060Z,7.50
2018-08-30T02:11:31.960Z,7.50
2018-08-30T02:14:00.767Z,7.33
2018-08-30T02:16:29.748Z,7.30
2018-08-30T02:18:58.618Z,7.63
2018-08-30T02:21:27.444Z,7.37
2018-08-30T02:23:56.310Z,7.33
2018-08-30T02:26:25.172Z,7.73
2018-08-30T02:28:53.978Z,7.17
2018-08-30T02:31:22.884Z,7.50
2018-08-30T02:33:51.723Z,6.93
2018-08-30T02:36:20.561Z,7.47
2018-08-30T02:38:49.376Z,7.73
2018-08-30T02:41:18.241Z,7.53
2018-08-30T02:43:47.044Z,7.30
2018-08-30T02:46:15.884Z,7.60
2018-08-30T02:48:44.756Z,7.70
2018-08-30T02:51:13.575Z,7.30
2018-08-30T02:53:42.397Z,6.87
2018-08-30T02:56:11.258Z,7.33
2018-08-30T02:58:40.071Z,7.40
2018-08-30T03:01:08.884Z,7.50
2018-08-30T03:03:37.955Z,7.30
2018-08-30T03:06:06.760Z,7.50
2018-08-30T03:08:35.653Z,7.60
2018-08-30T03:11:04.499Z,6.93
2018-08-30T03:13:33.320Z,6.97
2018-08-30T03:16:02.125Z,7.67
2018-08-30T03:18:31.012Z,7.63
2018-08-30T03:20:59.844Z,7.60
2018-08-30T03:23:28.660Z,7.63
2018-08-30T03:25:57.550Z,6.93
2018-08-30T03:28:26.363Z,7.53
2018-08-30T03:30:55.212Z,7.20
2018-08-30T03:33:24.191Z,7.00
2018-08-30T03:35:53.036Z,7.23
2018-08-30T03:38:21.854Z,7.43
2018-08-30T03:40:50.723Z,7.73
2018-08-30T03:43:19.540Z,7.67
2018-08-30T03:45:48.372Z,7.57
2018-08-30T03:48:17.237Z,7.17
2018-08-30T03:50:46.060Z,6.70
2018-08-30T03:53:14.884Z,7.77
2018-08-30T03:55:43.766Z,7.87
2018-08-30T03:58:12.570Z,6.37
2018-08-30T04:00:41.402Z,7.80
2018-08-30T04:03:10.557Z,7.47
2018-08-30T04:05:39.375Z,7.40
2018-08-30T04:08:08.200Z,6.87
2018-08-30T04:10:37.064Z,6.80
2018-08-30T04:13:05.877Z,7.20
2018-08-30T04:15:34.699Z,6.43
2018-08-30T04:18:03.551Z,7.00
2018-08-30T04:20:32.400Z,7.27
2018-08-30T04:23:01.271Z,7.33
2018-08-30T04:25:30.125Z,6.03
2018-08-30T04:27:58.932Z,5.97
2018-08-30T04:30:27.790Z,5.80
2018-08-30T04:32:57.135Z,5.80
2018-08-30T04:35:26.301Z,6.27
2018-08-30T04:37:55.126Z,5.83
2018-08-30T04:40:23.980Z,5.87
2018-08-30T04:42:52.930Z,5.63
2018-08-30T04:45:21.751Z,6.30
2018-08-30T04:47:50.617Z,6.20
2018-08-30T04:50:19.469Z,6.20
2018-08-30T04:52:48.297Z,6.50
2018-08-30T04:55:17.174Z,6.80
2018-08-30T04:57:46.015Z,7.27
2018-08-30T05:00:15.111Z,8.07
2018-08-30T05:02:44.285Z,6.83
2018-08-30T05:05:13.150Z,6.73
2018-08-30T05:07:42.240Z,6.93
2018-08-30T05:10:11.168Z,6.60
2018-08-30T05:12:40.012Z,6.90
2018-08-30T05:15:08.876Z,6.50
2018-08-30T05:17:37.747Z,7.50
2018-08-30T05:20:06.905Z,6.73
2018-08-30T05:22:35.768Z,7.63
2018-08-30T05:25:04.584Z,7.77
2018-08-30T05:27:33.454Z,7.60
2018-08-30T05:30:02.377Z,7.60
2018-08-30T05:32:31.429Z,8.23
2018-08-30T05:35:00.300Z,7.90
2018-08-30T05:37:29.131Z,7.83
2018-08-30T05:39:58.061Z,8.47
2018-08-30T05:42:26.885Z,8.63
2018-08-30T05:44:55.803Z,9.63
2018-08-30T05:47:24.671Z,9.40
2018-08-30T05:49:53.516Z,9.40
2018-08-30T05:52:22.439Z,10.13
2018-08-30T05:54:51.349Z,9.87
2018-08-30T05:57:20.160Z,9.50
2018-08-30T05:59:49.015Z,8.63
2018-08-30T06:02:17.827Z,9.50
2018-08-30T06:04:46.645Z,9.27
2018-08-30T06:07:22.201Z,9.50
2018-08-30T06:09:51.021Z,9.77
2018-08-30T06:12:19.856Z,8.63
2018-08-30T06:14:48.762Z,9.50
2018-08-30T06:17:17.574Z,9.47
2018-08-30T06:19:46.512Z,9.00
2018-08-30T06:22:15.376Z,8.63
2018-08-30T06:24:44.207Z,8.20
2018-08-30T06:27:13.027Z,8.33
2018-08-30T06:29:42.120Z,8.87
2018-08-30T06:32:11.037Z,8.67
2018-08-30T06:34:39.999Z,7.27
2018-08-30T06:37:09.649Z,7.83
2018-08-30T06:39:38.554Z,7.27
2018-08-30T06:42:07.681Z,7.70
2018-08-30T06:44:36.490Z,8.03
2018-08-30T06:47:05.463Z,7.60
2018-08-30T06:49:34.276Z,6.93
2018-08-30T06:52:03.133Z,7.23
2018-08-30T06:54:31.999Z,7.07
2018-08-30T06:57:00.845Z,7.03
2018-08-30T06:59:29.702Z,6.93
2018-08-30T07:01:58.685Z,6.47
2018-08-30T07:04:27.514Z,7.03
2018-08-30T07:06:56.331Z,7.23
2018-08-30T07:09:25.225Z,7.07
2018-08-30T07:11:54.118Z,6.90
2018-08-30T07:14:23.065Z,6.93
2018-08-30T07:16:51.895Z,7.33
2018-08-30T07:19:20.753Z,7.53
2018-08-30T07:21:49.625Z,7.30
2018-08-30T07:24:18.545Z,7.07
2018-08-30T07:26:47.440Z,6.77
2018-08-30T07:29:16.350Z,6.80
2018-08-30T07:31:45.201Z,7.20
2018-08-30T07:34:14.088Z,6.97
2018-08-30T07:36:42.999Z,6.70
2018-08-30T07:39:12.989Z,6.77
2018-08-30T07:41:42.225Z,7.00
2018-08-30T07:44:11.838Z,7.27
2018-08-30T07:46:40.656Z,6.47
2018-08-30T07:49:10.374Z,6.40
2018-08-30T07:51:39.219Z,6.40
2018-08-30T07:54:08.464Z,6.27
2018-08-30T07:56:37.342Z,6.47
2018-08-30T07:59:06.373Z,6.73
2018-08-30T08:01:35.297Z,6.40
2018-08-30T08:04:04.179Z,6.33
2018-08-30T08:06:33.214Z,6.47
2018-08-30T08:09:02.087Z,6.60
2018-08-30T08:11:30.931Z,6.15
2018-08-30T08:13:59.747Z,6.00
2018-08-30T08:16:28.690Z,6.42
2018-08-30T08:18:57.742Z,6.12
2018-08-30T08:21:26.534Z,6.17
2018-08-30T08:23:55.487Z,6.30
2018-08-30T08:26:24.366Z,6.78
2018-08-30T08:28:53.811Z,6.08
2018-08-30T08:31:22.789Z,5.90
2018-08-30T08:33:51.657Z,5.92
2018-08-30T08:36:20.576Z,5.85
2018-08-30T08:38:55.838Z,5.90
2018-08-30T08:41:24.761Z,5.58
2018-08-30T08:43:53.776Z,5.58
2018-08-30T08:46:22.986Z,6.17
2018-08-30T08:48:51.940Z,5.33
2018-08-30T08:51:20.793Z,5.70
2018-08-30T08:53:49.803Z,5.58
2018-08-30T08:56:18.679Z,5.58
2018-08-30T08:58:47.680Z,5.70
2018-08-30T09:01:16.482Z,5.95
2018-08-30T09:03:45.510Z,6.10
2018-08-30T09:06:14.388Z,5.97
2018-08-30T09:08:43.236Z,6.08
2018-08-30T09:11:12.079Z,5.30
2018-08-30T09:13:40.935Z,5.97
2018-08-30T09:16:09.988Z,6.37
2018-08-30T09:18:38.801Z,6.12
2018-08-30T09:21:07.637Z,5.85
2018-08-30T09:23:36.504Z,5.87
2018-08-30T09:26:05.459Z,5.83
2018-08-30T09:28:34.295Z,5.72
2018-08-30T09:31:03.274Z,6.33
2018-08-30T09:33:32.263Z,6.90
2018-08-30T09:36:01.083Z,6.33
2018-08-30T09:38:30.268Z,6.62
2018-08-30T09:40:59.096Z,5.87
2018-08-30T09:43:27.895Z,6.10
2018-08-30T09:45:56.743Z,6.17
2018-08-30T09:48:25.625Z,6.75
2018-08-30T09:50:54.485Z,6.10
2018-08-30T09:53:23.453Z,6.03
2018-08-30T09:55:52.269Z,6.55
2018-08-30T09:58:21.974Z,6.33
2018-08-30T10:00:56.073Z,6.12
2018-08-30T10:03:25.020Z,6.33
2018-08-30T10:05:53.867Z,6.85
2018-08-30T10:08:22.686Z,6.10
2018-08-30T10:10:51.608Z,6.72
2018-08-30T10:13:23.328Z,6.85
2018-08-30T10:15:52.216Z,6.33
2018-08-30T10:18:21.039Z,6.60
2018-08-30T10:20:50.510Z,6.28
2018-08-30T10:23:19.415Z,6.72
2018-08-30T10:25:48.331Z,6.35
2018-08-30T10:28:17.164Z,6.55
2018-08-30T10:30:45.961Z,6.80
2018-08-30T10:33:15.012Z,6.90
2018-08-30T10:35:43.951Z,7.00
2018-08-30T10:38:12.809Z,6.85
2018-08-30T10:40:41.632Z,7.28
2018-08-30T10:43:10.523Z,6.80
2018-08-30T10:45:39.383Z,6.83
2018-08-30T10:48:08.414Z,7.00
2018-08-30T10:50:37.292Z,7.90
2018-08-30T10:53:07.564Z,7.60
2018-08-30T10:55:36.510Z,7.45
2018-08-30T10:58:05.354Z,7.30
2018-08-30T11:00:35.402Z,7.55
2018-08-30T11:03:05.424Z,7.33
2018-08-30T11:05:34.388Z,7.72
2018-08-30T11:08:03.369Z,7.25
2018-08-30T11:10:32.252Z,7.60
2018-08-30T11:13:01.547Z,8.00
2018-08-30T11:15:30.510Z,7.22
2018-08-30T11:17:59.548Z,7.87
2018-08-30T11:20:28.832Z,7.65
2018-08-30T11:22:58.206Z,7.72
2018-08-30T11:25:27.099Z,7.90
2018-08-30T11:27:55.977Z,8.08
2018-08-30T11:30:24.938Z,8.28
2018-08-30T11:32:53.834Z,7.95
2018-08-30T11:35:22.777Z,8.28
2018-08-30T11:37:51.954Z,7.75
2018-08-30T11:40:20.815Z,8.18
2018-08-30T11:42:49.788Z,8.00
2018-08-30T11:45:18.708Z,8.30
2018-08-30T11:47:47.625Z,8.45
2018-08-30T11:50:16.508Z,8.68
2018-08-30T11:52:45.373Z,7.72
2018-08-30T11:55:14.206Z,7.62
2018-08-30T11:57:43.652Z,8.35
2018-08-30T12:00:12.741Z,9.05
2018-08-30T12:02:41.587Z,8.28
2018-08-30T12:05:10.493Z,9.45
2018-08-30T12:07:39.317Z,9.08
2018-08-30T12:10:08.191Z,9.60
2018-08-30T12:12:37.069Z,8.88
2018-08-30T12:15:09.279Z,9.65
2018-08-30T12:17:38.177Z,9.20
2018-08-30T12:20:07.072Z,8.90
2018-08-30T12:22:36.070Z,9.60
2018-08-30T12:25:04.958Z,9.75
2018-08-30T12:27:33.782Z,9.83
2018-08-30T12:30:02.621Z,10.23
2018-08-30T12:32:31.533Z,10.28
2018-08-30T12:35:00.443Z,9.45
2018-08-30T12:37:29.225Z,14.23
2018-08-30T12:39:58.250Z,11.48
2018-08-30T12:42:27.128Z,13.68
2018-08-30T12:44:57.149Z,12.63
2018-08-30T12:47:26.081Z,11.10
2018-08-30T12:49:55.030Z,10.65
2018-08-30T12:52:23.948Z,10.15
2018-08-30T12:54:52.951Z,11.50
2018-08-30T12:57:21.854Z,10.55
2018-08-30T12:59:50.776Z,10.50
2018-08-30T13:02:19.730Z,10.78
2018-08-30T13:04:48.726Z,11.12
2018-08-30T13:07:17.712Z,10.25
2018-08-30T13:09:46.589Z,10.98
2018-08-30T13:12:15.454Z,10.60
2018-08-30T13:14:44.257Z,10.18
2018-08-30T13:17:13.651Z,10.95
2018-08-30T13:19:42.728Z,10.38
2018-08-30T13:22:11.638Z,10.68
2018-08-30T13:24:40.619Z,10.45
2018-08-30T13:27:09.336Z,11.05
2018-08-30T13:29:38.183Z,10.08
2018-08-30T13:32:07.140Z,10.70
2018-08-30T13:34:35.962Z,10.48
2018-08-30T13:37:07.099Z,10.55
2018-08-30T13:39:36.155Z,10.43
2018-08-30T13:42:04.980Z,10.78
2018-08-30T13:44:33.723Z,10.80
2018-08-30T13:47:02.751Z,10.35
2018-08-30T13:49:31.321Z,11.10
2018-08-30T13:52:07.137Z,11.40
2018-08-30T13:54:35.898Z,10.38
2018-08-30T13:57:04.698Z,11.43
2018-08-30T13:59:33.744Z,10.82
2018-08-30T14:02:02.443Z,9.80
2018-08-30T14:04:31.181Z,11.53
2018-08-30T14:07:00.285Z,10.60
2018-08-30T14:09:29.325Z,10.98
2018-08-30T14:11:58.286Z,10.70
2018-08-30T14:14:27.263Z,10.85
2018-08-30T14:16:55.878Z,10.28
2018-08-30T14:19:24.837Z,10.28
2018-08-30T14:21:53.750Z,10.65
2018-08-30T14:24:22.589Z,11.05
2018-08-30T14:26:51.491Z,10.80
2018-08-30T14:29:20.433Z,10.58
2018-08-30T14:31:49.318Z,10.08
2018-08-30T14:34:18.226Z,10.32
2018-08-30T14:36:47.111Z,10.48
2018-08-30T14:39:22.532Z,11.22
2018-08-30T14:41:51.493Z,11.18
2018-08-30T14:44:20.342Z,10.32
2018-08-30T14:46:49.133Z,10.40
2018-08-30T14:49:18.026Z,10.63
2018-08-30T14:51:46.923Z,10.00
2018-08-30T14:54:15.838Z,10.85
2018-08-30T14:56:44.704Z,10.05
2018-08-30T14:59:13.630Z,10.18
2018-08-30T15:01:42.368Z,9.88
2018-08-30T15:04:11.251Z,11.05
2018-08-30T15:06:40.188Z,10.35
2018-08-30T15:09:09.469Z,10.82
2018-08-30T15:11:38.360Z,10.40
2018-08-30T15:14:07.236Z,10.53
2018-08-30T15:16:36.318Z,11.80
2018-08-30T15:19:05.381Z,10.13
2018-08-30T15:21:34.656Z,10.50
2018-08-30T15:24:03.563Z,11.00
2018-08-30T15:26:32.480Z,10.05
2018-08-30T15:29:01.514Z,10.18
2018-08-30T15:31:30.429Z,10.03
2018-08-30T15:33:59.534Z,10.50
2018-08-30T15:36:28.351Z,10.60
2018-08-30T15:38:57.445Z,10.05
2018-08-30T15:41:26.525Z,10.32
2018-08-30T15:43:55.431Z,10.58
2018-08-30T15:46:24.336Z,10.75
2018-08-30T15:48:53.374Z,10.58
2018-08-30T15:51:22.396Z,10.53
2018-08-30T15:53:51.275Z,10.63
2018-08-30T15:56:20.263Z,10.95
2018-08-30T15:58:49.355Z,10.98
2018-08-30T16:01:18.289Z,9.95
2018-08-30T16:03:47.243Z,10.15
2018-08-30T16:06:16.236Z,10.72
2018-08-30T16:08:45.176Z,9.90
2018-08-30T16:11:14.172Z,9.98
2018-08-30T16:13:43.000Z,10.63
2018-08-30T16:16:11.960Z,10.80
2018-08-30T16:18:41.462Z,10.28
2018-08-30T16:21:10.440Z,10.88
2018-08-30T16:23:39.405Z,10.20
2018-08-30T16:26:08.643Z,10.25
2018-08-30T16:28:38.202Z,10.25
2018-08-30T16:31:07.285Z,10.60
2018-08-30T16:33:36.183Z,10.55
2018-08-30T16:36:05.017Z,10.95
2018-08-30T16:38:33.895Z,10.60
2018-08-30T16:41:02.874Z,10.23
2018-08-30T16:43:31.818Z,10.32
2018-08-30T16:46:00.784Z,10.15
2018-08-30T16:48:30.293Z,10.15
2018-08-30T16:51:01.097Z,11.08
2018-08-30T16:53:29.997Z,11.15
2018-08-30T16:55:58.922Z,11.03
2018-08-30T16:58:27.837Z,11.20
2018-08-30T17:00:56.810Z,11.53
2018-08-30T17:03:25.711Z,11.00
2018-08-30T17:05:54.678Z,11.45
2018-08-30T17:08:23.511Z,10.82
2018-08-30T17:10:52.390Z,10.82
2018-08-30T17:13:21.419Z,10.72
2018-08-30T17:15:50.332Z,10.20
2018-08-30T17:18:19.207Z,10.23
2018-08-30T17:20:50.455Z,10.43
2018-08-30T17:23:19.273Z,11.10
2018-08-30T17:25:48.211Z,11.25
2018-08-30T17:28:17.108Z,10.35
2018-08-30T17:30:45.941Z,10.55
2018-08-30T17:33:14.781Z,11.18
2018-08-30T17:35:43.695Z,11.08
2018-08-30T17:38:12.548Z,11.40
2018-08-30T17:40:41.396Z,10.58
2018-08-30T17:43:10.296Z,10.43
2018-08-30T17:45:39.139Z,11.70
2018-08-30T17:48:08.284Z,10.50
2018-08-30T17:50:41.162Z,11.30
2018-08-30T17:53:10.036Z,10.50
2018-08-30T17:55:39.031Z,10.55
2018-08-30T17:58:08.213Z,10.63
2018-08-30T18:00:39.336Z,10.40
2018-08-30T18:03:08.288Z,11.20
2018-08-30T18:05:37.280Z,11.40
2018-08-30T18:08:06.663Z,12.85
2018-08-30T18:10:47.788Z,10.35
2018-08-30T18:13:28.919Z,11.80
2018-08-30T18:15:58.303Z,10.50
2018-08-30T18:18:27.295Z,12.70
2018-08-30T18:20:56.273Z,12.25
2018-08-30T18:23:25.124Z,10.98
2018-08-30T18:25:54.127Z,12.47
2018-08-30T18:28:22.981Z,12.03
2018-08-30T18:30:51.975Z,12.03
2018-08-30T18:33:20.920Z,12.13
2018-08-30T18:35:49.829Z,12.07
2018-08-30T18:38:18.922Z,12.60
2018-08-30T18:40:48.056Z,12.80
2018-08-30T18:43:16.996Z,14.20
2018-08-30T18:45:46.005Z,14.10
2018-08-30T18:48:14.852Z,13.00
2018-08-30T18:50:43.717Z,13.88
2018-08-30T18:53:12.631Z,13.95
2018-08-30T18:55:41.640Z,14.43
2018-08-30T18:58:10.556Z,14.23
2018-08-30T19:00:39.447Z,14.05
2018-08-30T19:03:08.430Z,12.85
2018-08-30T19:05:37.417Z,13.83
2018-08-30T19:08:06.365Z,14.87
2018-08-30T19:10:35.497Z,14.23
2018-08-30T19:13:04.361Z,14.58
2018-08-30T19:15:38.565Z,15.57
2018-08-30T19:18:13.352Z,13.60
2018-08-30T19:20:42.340Z,14.30
2018-08-30T19:23:11.208Z,14.33
2018-08-30T19:25:40.268Z,14.87
2018-08-30T19:28:09.901Z,15.03
2018-08-30T19:30:38.787Z,14.80
2018-08-30T19:33:07.715Z,15.35
2018-08-30T19:35:41.655Z,14.90
2018-08-30T19:38:10.545Z,15.47
2018-08-30T19:40:44.711Z,15.20
2018-08-30T19:43:13.603Z,14.97
2018-08-30T19:45:42.461Z,14.95
2018-08-30T19:48:11.397Z,14.93
2018-08-30T19:50:40.243Z,14.33
2018-08-30T19:53:09.140Z,15.37
2018-08-30T19:55:38.090Z,15.10
2018-08-30T19:58:06.977Z,13.93
2018-08-30T20:00:35.816Z,14.23
2018-08-30T20:03:04.772Z,14.55
2018-08-30T20:05:33.650Z,14.30
2018-08-30T20:08:02.576Z,14.73
2018-08-30T20:10:31.557Z,15.13
2018-08-30T20:13:00.459Z,15.60
2018-08-30T20:15:29.421Z,14.50
2018-08-30T20:17:58.323Z,14.30
2018-08-30T20:20:27.169Z,15.07
2018-08-30T20:22:57.013Z,15.13
2018-08-30T20:25:26.055Z,14.27
2018-08-30T20:27:55.002Z,14.90
2018-08-30T20:30:23.867Z,14.90
2018-08-30T20:32:53.941Z,14.07
2018-08-30T20:35:22.758Z,14.57
2018-08-30T20:37:52.132Z,14.07
2018-08-30T20:40:23.604Z,14.50
2018-08-30T20:42:52.529Z,15.07
2018-08-30T20:45:40.929Z,14.40
2018-08-30T20:48:09.971Z,14.23
2018-08-30T20:50:38.921Z,14.83
2018-08-30T20:53:07.943Z,14.63
2018-08-30T20:55:36.942Z,14.30
2018-08-30T20:58:06.348Z,14.83
2018-08-30T21:00:35.358Z,14.57
2018-08-30T21:03:04.264Z,14.83
2018-08-30T21:05:33.072Z,15.03
2018-08-30T21:08:02.028Z,15.37
2018-08-30T21:10:31.176Z,14.43
2018-08-30T21:13:00.589Z,15.07
2018-08-30T21:15:29.718Z,15.67
2018-08-30T21:17:58.720Z,15.80
2018-08-30T21:20:27.698Z,14.30
2018-08-30T21:22:56.915Z,13.93
2018-08-30T21:25:25.868Z,15.03
2018-08-30T21:27:54.868Z,14.43
2018-08-30T21:30:23.806Z,14.17
2018-08-30T21:32:52.764Z,14.63
2018-08-30T21:35:21.795Z,14.33
2018-08-30T21:37:50.732Z,14.90
2018-08-30T21:40:19.599Z,15.07
2018-08-30T21:42:48.560Z,14.60
2018-08-30T21:45:17.471Z,14.60
2018-08-30T21:47:46.340Z,14.70
2018-08-30T21:50:15.282Z,15.47
2018-08-30T21:52:44.193Z,14.47
2018-08-30T21:55:13.001Z,14.40
2018-08-30T21:57:42.002Z,15.10
2018-08-30T22:00:10.986Z,15.13
2018-08-30T22:02:39.881Z,15.17
2018-08-30T22:05:08.788Z,14.67
2018-08-30T22:07:37.707Z,14.90
2018-08-30T22:10:06.756Z,16.73
2018-08-30T22:12:35.701Z,15.87
2018-08-30T22:15:04.592Z,14.97
2018-08-30T22:17:33.522Z,14.77
2018-08-30T22:20:02.723Z,14.50
2018-08-30T22:22:31.632Z,14.70
2018-08-30T22:25:00.511Z,16.30
2018-08-30T22:27:29.502Z,15.63
2018-08-30T22:29:58.435Z,15.77
2018-08-30T22:32:27.283Z,15.13
2018-08-30T22:34:56.210Z,15.53
2018-08-30T22:37:25.113Z,14.83
2018-08-30T22:39:53.995Z,15.63
2018-08-30T22:42:22.907Z,14.90
2018-08-30T22:44:51.788Z,15.60
2018-08-30T22:47:20.682Z,15.53
2018-08-30T22:49:49.625Z,16.17
2018-08-30T22:52:18.582Z,15.83
2018-08-30T22:54:47.484Z,15.47
2018-08-30T22:57:16.436Z,15.53
2018-08-30T22:59:45.357Z,14.93
2018-08-30T23:02:14.258Z,15.70
2018-08-30T23:04:43.255Z,14.93
2018-08-30T23:07:12.088Z,15.00
2018-08-30T23:09:40.965Z,15.33
2018-08-30T23:12:09.900Z,15.57
2018-08-30T23:14:38.805Z,15.57
2018-08-30T23:17:07.693Z,16.30
2018-08-30T23:19:36.823Z,16.53
2018-08-30T23:22:05.649Z,15.50
2018-08-30T23:24:34.539Z,15.73
2018-08-30T23:27:03.508Z,15.20
2018-08-30T23:29:32.416Z,15.77
2018-08-30T23:32:01.328Z,16.07
2018-08-30T23:34:30.263Z,14.87
2018-08-30T23:36:59.349Z,16.47
2018-08-30T23:39:28.176Z,15.03
2018-08-30T23:41:57.147Z,14.50
2018-08-30T23:44:25.986Z,15.00
2018-08-30T23:46:54.871Z,15.30
2018-08-30T23:49:23.804Z,15.13
2018-08-30T23:51:52.692Z,16.07
2018-08-30T23:54:21.530Z,14.43
2018-08-30T23:56:50.535Z,15.10
2018-08-30T23:59:30.524Z,14.90
